Time;durP1;ratioP1;P1;durP2;ratioP2;P2;SDS_P1;SDS_P2;PMS_P1;PMS_P2;Temp;Humidity;BMP_temperature;BMP_pressure;BME280_temperature;BME280_humidity;BME280_pressure;Samples;Min_cycle;Max_cycle;Signal;HPM_P1;HPM_P2
2021/12/29 00:01:05;;;;;;;;;;;;;;;4.55;59.43;98833.34;4411858;32;22757;-84
2021/12/29 00:03:30;;;;;;;;;;;;;;;4.62;59.43;98841.75;4412301;32;20652;-83
2021/12/29 00:05:55;;;;;;;;;;;;;;;4.69;59.44;98840.72;4425603;32;19989;-87
2021/12/29 00:08:21;;;;;;;;;;;;;;;4.63;59.43;98841.72;4425358;32;20326;-85
2021/12/29 00:10:47;;;;;;;;;;;;;;;4.77;59.44;98830.25;4425935;32;20247;-85
2021/12/29 00:13:15;;;;;;;;;;;;;;;4.76;59.44;98838.88;4413071;32;19985;-83
2021/12/29 00:15:41;;;;;;;;;;;;;;;4.90;59.45;98829.06;4412779;32;19989;-85
2021/12/29 00:18:06;;;;;;;;;;;;;;;4.88;59.46;98830.84;4412740;32;20072;-85
2021/12/29 00:20:34;;;;;;;;;;;;;;;4.85;59.45;98833.50;4425525;32;19988;-85
2021/12/29 00:23:03;;;;;;;;;;;;;;;4.67;59.44;98832.19;4425317;32;20383;-84
2021/12/29 00:25:29;;;;;;;;;;;;;;;4.76;59.45;98828.56;4411978;32;20002;-85
2021/12/29 00:27:59;;;;;;;;;;;;;;;4.66;59.44;98830.50;4425284;32;20021;-84
2021/12/29 00:30:24;;;;;;;;;;;;;;;4.43;59.43;98830.16;4437628;32;20043;-84
2021/12/29 00:32:53;;;;;;;;;;;;;;;4.44;59.43;98824.12;4412331;32;19969;-84
2021/12/29 00:35:18;;;;;;;;;;;;;;;4.39;59.42;98802.78;4437395;32;20049;-84
2021/12/29 00:37:44;;;;;;;;;;;;;;;4.44;59.42;98812.09;4411788;32;19993;-83
2021/12/29 00:40:12;;;;;;;;;;;;;;;4.34;59.41;98813.19;4424489;32;19989;-83
2021/12/29 00:42:40;;;;;;;;;;;;;;;4.27;59.42;98809.91;4424821;32;19981;-84
2021/12/29 00:45:06;;;;;;;;;;;;;;;4.29;59.42;98803.00;4412635;32;20044;-84
2021/12/29 00:47:33;;;;;;;;;;;;;;;4.44;59.43;98808.66;4439154;32;19978;-85
2021/12/29 00:50:09;;;;;;;;;;;;;;;4.23;59.41;98810.81;4412408;32;19981;-84
2021/12/29 00:52:35;;;;;;;;;;;;;;;4.28;59.42;98809.03;4411861;32;20025;-85
2021/12/29 00:55:00;;;;;;;;;;;;;;;4.24;59.42;98816.81;4425034;32;20016;-86
2021/12/29 00:57:28;;;;;;;;;;;;;;;4.30;59.42;98809.00;4424931;32;20039;-85
2021/12/29 00:59:53;;;;;;;;;;;;;;;4.35;59.41;98803.72;4424687;32;19989;-85
2021/12/29 01:02:19;;;;;;;;;;;;;;;4.39;59.42;98808.78;4438553;32;19973;-84
2021/12/29 01:04:44;;;;;;;;;;;;;;;4.33;59.41;98801.19;4411475;32;20054;-85
2021/12/29 01:07:09;;;;;;;;;;;;;;;4.40;59.42;98794.16;4424352;32;20301;-83
2021/12/29 01:09:34;;;;;;;;;;;;;;;4.51;59.43;98798.22;4424751;32;20066;-85
2021/12/29 01:12:20;;;;;;;;;;;;;;;4.42;59.42;98794.97;4411829;32;20004;-85
2021/12/29 01:14:53;;;;;;;;;;;;;;;4.38;59.42;98788.19;4424620;32;20011;-84
2021/12/29 01:17:18;;;;;;;;;;;;;;;4.48;59.43;98797.41;4413565;32;19994;-86
2021/12/29 01:19:43;;;;;;;;;;;;;;;4.45;59.42;98789.75;4412882;32;20001;-84
2021/12/29 01:22:08;;;;;;;;;;;;;;;4.52;59.43;98781.87;4423253;32;20004;-84
2021/12/29 01:24:34;;;;;;;;;;;;;;;4.37;59.42;98794.25;4425773;32;20291;-84
2021/12/29 01:26:59;;;;;;;;;;;;;;;4.41;59.42;98788.13;4412615;32;20009;-86
2021/12/29 01:29:26;;;;;;;;;;;;;;;4.38;59.42;98783.91;4412952;32;20341;-85
2021/12/29 01:31:51;;;;;;;;;;;;;;;4.44;59.43;98772.59;4412474;32;19996;-85
2021/12/29 01:34:16;;;;;;;;;;;;;;;4.44;59.43;98770.03;4424477;32;20006;-85
2021/12/29 01:36:42;;;;;;;;;;;;;;;4.54;59.43;98780.09;4412453;32;19985;-85
2021/12/29 01:39:08;;;;;;;;;;;;;;;4.48;59.42;98787.94;4413463;32;20441;-84
2021/12/29 01:41:33;;;;;;;;;;;;;;;4.60;59.44;98794.56;4426686;32;19981;-83
2021/12/29 01:43:59;;;;;;;;;;;;;;;4.61;59.43;98794.53;4426418;32;20297;-84
2021/12/29 01:46:24;;;;;;;;;;;;;;;4.76;59.44;98795.06;4413867;32;19978;-85
2021/12/29 01:48:49;;;;;;;;;;;;;;;4.77;59.44;98792.44;4426737;32;20012;-85
2021/12/29 01:51:17;;;;;;;;;;;;;;;4.68;59.44;98794.38;4426519;32;20251;-85
2021/12/29 01:53:48;;;;;;;;;;;;;;;4.68;59.44;98802.09;4439676;32;19990;-85
2021/12/29 01:56:14;;;;;;;;;;;;;;;4.82;59.45;98810.38;4414266;32;19989;-84
2021/12/29 01:58:39;;;;;;;;;;;;;;;4.83;59.45;98820.66;4413364;32;20000;-85
2021/12/29 02:01:05;;;;;;;;;;;;;;;4.90;59.45;98804.13;4426812;32;20334;-85
2021/12/29 02:03:30;;;;;;;;;;;;;;;4.86;59.44;98807.69;4426153;32;20000;-85
2021/12/29 02:05:55;;;;;;;;;;;;;;;4.91;59.45;98810.13;4413397;32;20024;-84
2021/12/29 02:08:23;;;;;;;;;;;;;;;4.98;59.45;98805.72;4426548;32;19978;-85
2021/12/29 02:10:48;;;;;;;;;;;;;;;4.98;59.45;98800.56;4426587;32;19993;-83
2021/12/29 02:13:13;;;;;;;;;;;;;;;4.86;59.44;98805.09;4426353;32;19997;-85
2021/12/29 02:15:39;;;;;;;;;;;;;;;4.89;59.45;98799.88;4426340;32;19994;-85
2021/12/29 02:18:12;;;;;;;;;;;;;;;5.02;59.46;98800.44;4440211;32;20333;-85
2021/12/29 02:20:37;;;;;;;;;;;;;;;5.02;59.46;98807.31;4414089;32;19992;-86
2021/12/29 02:23:19;;;;;;;;;;;;;;;4.92;59.45;98804.09;4412919;32;20049;-86
2021/12/29 02:25:49;;;;;;;;;;;;;;;4.89;59.45;98805.03;4428085;32;20059;-86
2021/12/29 02:28:15;;;;;;;;;;;;;;;4.93;59.45;98808.38;4413716;32;19982;-85
2021/12/29 02:30:40;;;;;;;;;;;;;;;4.80;59.45;98805.25;4440555;32;20793;-86
2021/12/29 02:33:06;;;;;;;;;;;;;;;4.94;59.46;98804.91;4413216;32;20049;-86
2021/12/29 02:35:32;;;;;;;;;;;;;;;5.12;59.46;98801.03;4427362;32;20013;-84
2021/12/29 02:37:59;;;;;;;;;;;;;;;5.08;59.45;98805.44;4413439;32;19995;-84
2021/12/29 02:40:24;;;;;;;;;;;;;;;5.11;59.46;98807.94;4438978;32;19993;-86
2021/12/29 02:42:49;;;;;;;;;;;;;;;5.12;59.46;98809.63;4426479;32;20323;-86
2021/12/29 02:45:18;;;;;;;;;;;;;;;5.20;59.47;98801.69;4426217;32;20023;-84
2021/12/29 02:47:43;;;;;;;;;;;;;;;5.26;59.47;98806.69;4425893;32;19978;-85
2021/12/29 02:50:08;;;;;;;;;;;;;;;5.34;59.47;98797.03;4438423;32;22585;-89
2021/12/29 02:52:34;;;;;;;;;;;;;;;5.11;59.46;98801.91;4438319;32;19981;-89
2021/12/29 02:54:59;;;;;;;;;;;;;;;5.17;59.47;98807.75;4427845;32;19989;-89
2021/12/29 02:57:24;;;;;;;;;;;;;;;5.19;59.47;98815.47;4427711;32;20303;-88
2021/12/29 02:59:50;;;;;;;;;;;;;;;5.22;59.46;98811.09;4440601;32;20027;-88
2021/12/29 03:02:15;;;;;;;;;;;;;;;5.30;59.47;98808.31;4427936;32;20000;-88
2021/12/29 03:04:40;;;;;;;;;;;;;;;5.22;59.46;98815.41;4425543;32;20259;-87
2021/12/29 03:07:05;;;;;;;;;;;;;;;5.12;59.46;98807.03;4427338;32;19996;-87
2021/12/29 03:09:31;;;;;;;;;;;;;;;4.82;59.45;98811.22;4427272;32;20284;-87
2021/12/29 03:11:56;;;;;;;;;;;;;;;4.69;59.44;98804.66;4398895;32;808800;-88
2021/12/29 03:14:22;;;;;;;;;;;;;;;4.94;59.46;98810.06;4433861;32;20063;-88
2021/12/29 03:16:47;;;;;;;;;;;;;;;4.99;59.45;98797.94;4427546;32;19992;-87
2021/12/29 03:19:12;;;;;;;;;;;;;;;4.95;59.46;98804.03;4414906;32;20004;-88
2021/12/29 03:21:38;;;;;;;;;;;;;;;5.06;59.46;98799.47;4414405;32;20322;-88
2021/12/29 03:24:03;;;;;;;;;;;;;;;4.96;59.45;98800.56;4414405;32;19993;-88
2021/12/29 03:26:28;;;;;;;;;;;;;;;5.01;59.45;98805.63;4414661;32;20003;-87
2021/12/29 03:28:54;;;;;;;;;;;;;;;4.99;59.45;98809.97;4415065;32;19977;-88
2021/12/29 03:31:21;;;;;;;;;;;;;;;4.97;59.46;98806.56;4414679;32;19997;-87
2021/12/29 03:33:46;;;;;;;;;;;;;;;5.03;59.46;98794.38;4414909;32;19993;-87
2021/12/29 03:36:12;;;;;;;;;;;;;;;5.11;59.46;98789.87;4413675;32;20254;-87
2021/12/29 03:38:38;;;;;;;;;;;;;;;5.08;59.45;98797.69;4413832;32;19985;-87
2021/12/29 03:41:04;;;;;;;;;;;;;;;5.12;59.47;98801.88;4414672;32;19985;-90
2021/12/29 03:43:29;;;;;;;;;;;;;;;5.02;59.46;98802.16;4415215;32;20012;-89
2021/12/29 03:45:54;;;;;;;;;;;;;;;5.17;59.47;98805.19;4414868;32;19978;-89
2021/12/29 03:48:21;;;;;;;;;;;;;;;5.18;59.47;98806.88;4414466;32;19995;-88
2021/12/29 03:50:46;;;;;;;;;;;;;;;5.15;59.46;98814.69;4413097;32;19961;-87
2021/12/29 03:53:13;;;;;;;;;;;;;;;5.09;59.46;98819.16;4415019;32;20055;-89
2021/12/29 03:55:39;;;;;;;;;;;;;;;5.20;59.47;98817.16;4415160;32;19978;-89
2021/12/29 03:58:04;;;;;;;;;;;;;;;5.05;59.46;98808.09;4414372;32;19993;-89
2021/12/29 04:00:31;;;;;;;;;;;;;;;4.89;59.45;98810.19;4414060;32;19989;-88
2021/12/29 04:02:57;;;;;;;;;;;;;;;5.05;59.46;98818.41;4415075;32;20385;-88
2021/12/29 04:05:22;;;;;;;;;;;;;;;5.08;59.46;98814.91;4414917;32;19977;-89
2021/12/29 04:07:48;;;;;;;;;;;;;;;5.01;59.45;98815.94;4414946;32;19978;-90
2021/12/29 04:10:13;;;;;;;;;;;;;;;4.93;59.46;98814.38;4415052;32;20009;-88
2021/12/29 04:12:44;;;;;;;;;;;;;;;4.96;59.45;98817.75;4414587;32;19997;-89
2021/12/29 04:15:09;;;;;;;;;;;;;;;5.04;59.46;98824.44;4415176;32;19985;-89
2021/12/29 04:17:38;;;;;;;;;;;;;;;5.06;59.46;98825.25;4414607;32;19973;-89
2021/12/29 04:22:50;;;;;;;;;;;;;;;4.93;59.45;98831.56;4429793;32;19995;-88
2021/12/29 04:25:18;;;;;;;;;;;;;;;5.10;59.46;98838.91;4427155;32;19981;-87
2021/12/29 04:27:44;;;;;;;;;;;;;;;5.01;59.46;98842.56;4414356;32;20005;-90
2021/12/29 04:30:09;;;;;;;;;;;;;;;5.09;59.47;98835.50;4427686;32;19981;-90
2021/12/29 04:32:37;;;;;;;;;;;;;;;5.11;59.46;98827.72;4414352;32;19993;-89
2021/12/29 04:35:02;;;;;;;;;;;;;;;5.21;59.46;98836.94;4414538;32;20711;-90
2021/12/29 04:37:27;;;;;;;;;;;;;;;5.09;59.46;98834.66;4414634;32;19981;-87
2021/12/29 04:39:52;;;;;;;;;;;;;;;4.97;59.45;98830.66;4413849;32;20037;-86
2021/12/29 04:42:18;;;;;;;;;;;;;;;5.06;59.46;98825.25;4413600;32;20754;-87
2021/12/29 04:44:43;;;;;;;;;;;;;;;5.01;59.46;98832.25;4413948;32;19974;-87
2021/12/29 04:47:08;;;;;;;;;;;;;;;5.09;59.46;98840.66;4413865;32;20048;-86
2021/12/29 04:49:40;;;;;;;;;;;;;;;4.93;59.45;98849.63;4413083;32;19985;-85
2021/12/29 04:52:06;;;;;;;;;;;;;;;4.90;59.45;98847.12;4425649;32;20060;-85
2021/12/29 04:54:31;;;;;;;;;;;;;;;5.05;59.46;98849.34;4412848;32;20004;-85
2021/12/29 04:56:57;;;;;;;;;;;;;;;5.01;59.46;98840.00;4425748;32;19985;-85
2021/12/29 04:59:22;;;;;;;;;;;;;;;4.98;59.45;98837.50;4425519;32;20810;-87
2021/12/29 05:01:48;;;;;;;;;;;;;;;5.12;59.46;98848.31;4425675;32;19993;-86
2021/12/29 05:04:20;;;;;;;;;;;;;;;5.02;59.46;98852.00;4413034;32;19985;-85
2021/12/29 05:09:29;;;;;;;;;;;;;;;4.98;59.45;98842.66;4427670;32;20045;-86
2021/12/29 05:11:54;;;;;;;;;;;;;;;4.98;59.45;98844.38;4438713;32;23958;-85
2021/12/29 05:14:20;;;;;;;;;;;;;;;5.20;59.47;98841.25;4412670;32;19988;-86
2021/12/29 05:16:45;;;;;;;;;;;;;;;5.35;59.47;98840.00;4412366;32;24262;-86
2021/12/29 05:19:10;;;;;;;;;;;;;;;5.32;59.48;98836.66;4425336;32;19977;-85
2021/12/29 05:21:35;;;;;;;;;;;;;;;5.18;59.47;98844.72;4425371;32;20023;-85
2021/12/29 05:24:00;;;;;;;;;;;;;;;5.10;59.46;98841.50;4425691;32;19985;-86
2021/12/29 05:26:26;;;;;;;;;;;;;;;5.14;59.46;98838.78;4425044;32;25650;-86
2021/12/29 05:28:51;;;;;;;;;;;;;;;5.19;59.47;98849.00;4425974;32;20017;-86
2021/12/29 05:31:16;;;;;;;;;;;;;;;5.03;59.46;98850.28;4426182;32;20318;-87
2021/12/29 05:33:41;;;;;;;;;;;;;;;4.94;59.46;98851.31;4412707;32;20748;-83
2021/12/29 05:36:07;;;;;;;;;;;;;;;5.22;59.46;98851.53;4439273;32;20267;-85
2021/12/29 05:38:32;;;;;;;;;;;;;;;5.15;59.46;98853.38;4412839;32;20009;-87
2021/12/29 05:40:57;;;;;;;;;;;;;;;5.22;59.46;98854.09;4425726;32;20449;-85
2021/12/29 05:43:22;;;;;;;;;;;;;;;5.11;59.46;98856.09;4412160;32;24907;-85
2021/12/29 05:45:49;;;;;;;;;;;;;;;5.21;59.46;98861.00;4425284;32;20053;-85
2021/12/29 05:48:14;;;;;;;;;;;;;;;5.09;59.46;98871.59;4425413;32;19999;-86
2021/12/29 05:50:39;;;;;;;;;;;;;;;5.02;59.46;98864.91;4412845;32;20056;-86
2021/12/29 05:53:05;;;;;;;;;;;;;;;5.04;59.46;98865.72;4412644;32;19966;-86
2021/12/29 05:55:30;;;;;;;;;;;;;;;5.15;59.46;98868.88;4412330;32;20239;-86
2021/12/29 05:57:55;;;;;;;;;;;;;;;5.39;59.48;98869.16;4411898;32;19997;-85
2021/12/29 06:00:21;;;;;;;;;;;;;;;5.36;59.47;98864.91;4411956;32;20049;-85
2021/12/29 06:02:46;;;;;;;;;;;;;;;5.28;59.47;98856.53;4412866;32;19989;-86
2021/12/29 06:05:11;;;;;;;;;;;;;;;5.24;59.46;98867.81;4412507;32;20019;-86
2021/12/29 06:07:37;;;;;;;;;;;;;;;4.94;59.46;98877.97;4424491;32;20314;-86
2021/12/29 06:10:02;;;;;;;;;;;;;;;4.98;59.45;98878.75;4425293;32;20255;-85
2021/12/29 06:12:28;;;;;;;;;;;;;;;5.09;59.46;98870.75;4410717;32;20022;-84
2021/12/29 06:14:54;;;;;;;;;;;;;;;5.12;59.46;98871.53;4422393;32;19973;-85
2021/12/29 06:17:19;;;;;;;;;;;;;;;4.98;59.45;98875.34;4438713;32;20012;-87
2021/12/29 06:19:45;;;;;;;;;;;;;;;4.91;59.45;98878.03;4412392;32;20129;-85
2021/12/29 06:22:10;;;;;;;;;;;;;;;4.93;59.45;98878.00;4412797;32;19984;-87
2021/12/29 06:24:36;;;;;;;;;;;;;;;5.02;59.46;98880.37;4415142;32;20029;-88
2021/12/29 06:27:01;;;;;;;;;;;;;;;4.98;59.45;98890.81;4415325;32;19989;-88
2021/12/29 06:29:27;;;;;;;;;;;;;;;4.85;59.44;98890.22;4415523;32;19994;-88
2021/12/29 06:31:52;;;;;;;;;;;;;;;4.98;59.45;98885.66;4415606;32;19992;-88
2021/12/29 06:34:17;;;;;;;;;;;;;;;4.99;59.45;98888.19;4415338;32;20011;-86
2021/12/29 06:36:42;;;;;;;;;;;;;;;5.13;59.46;98878.38;4414456;32;20009;-84
2021/12/29 06:39:08;;;;;;;;;;;;;;;4.92;59.45;98884.88;4414631;32;20096;-86
2021/12/29 06:41:33;;;;;;;;;;;;;;;4.78;59.44;98892.09;4413925;32;20001;-88
2021/12/29 06:43:58;;;;;;;;;;;;;;;4.36;59.43;98888.72;4414836;32;19985;-86
2021/12/29 06:46:23;;;;;;;;;;;;;;;4.58;59.43;98892.53;4426909;32;20022;-83
2021/12/29 06:48:48;;;;;;;;;;;;;;;4.38;59.42;98901.56;4427000;32;20358;-86
2021/12/29 06:51:14;;;;;;;;;;;;;;;4.38;59.43;98911.87;4413932;32;20235;-86
2021/12/29 06:53:39;;;;;;;;;;;;;;;4.41;59.42;98914.38;4413774;32;20012;-85
2021/12/29 06:56:05;;;;;;;;;;;;;;;4.42;59.43;98919.50;4414117;32;20019;-85
2021/12/29 06:58:31;;;;;;;;;;;;;;;4.59;59.43;98916.56;4413781;32;20005;-86
2021/12/29 07:00:56;;;;;;;;;;;;;;;4.48;59.42;98919.37;4413972;32;20009;-85
2021/12/29 07:03:23;;;;;;;;;;;;;;;4.40;59.42;98913.53;4440341;32;19969;-85
2021/12/29 07:05:48;;;;;;;;;;;;;;;4.49;59.42;98915.91;4413727;32;20000;-85
2021/12/29 07:08:14;;;;;;;;;;;;;;;4.42;59.42;98908.34;4413584;32;20049;-86
2021/12/29 07:10:42;;;;;;;;;;;;;;;4.66;59.44;98914.72;4426397;32;20339;-85
2021/12/29 07:13:07;;;;;;;;;;;;;;;4.60;59.43;98915.69;4413781;32;19983;-86
2021/12/29 07:15:32;;;;;;;;;;;;;;;4.58;59.43;98926.03;4426457;32;20361;-85
2021/12/29 07:17:58;;;;;;;;;;;;;;;4.65;59.44;98934.47;4426235;32;19997;-85
2021/12/29 07:20:23;;;;;;;;;;;;;;;4.73;59.44;98926.56;4414540;32;19974;-86
2021/12/29 07:22:48;;;;;;;;;;;;;;;4.46;59.42;98934.00;4426087;32;20012;-85
2021/12/29 07:25:13;;;;;;;;;;;;;;;4.43;59.43;98933.22;4439514;32;20342;-89
2021/12/29 07:27:39;;;;;;;;;;;;;;;4.52;59.43;98939.06;4415131;32;20035;-89
2021/12/29 07:30:04;;;;;;;;;;;;;;;4.45;59.42;98946.94;4415290;32;20009;-89
2021/12/29 07:32:31;;;;;;;;;;;;;;;4.39;59.42;98950.47;4414958;32;19995;-87
2021/12/29 07:34:56;;;;;;;;;;;;;;;4.46;59.43;98943.47;4415390;32;20328;-89
2021/12/29 07:37:22;;;;;;;;;;;;;;;4.01;59.40;98954.63;4414513;32;20015;-89
2021/12/29 07:39:47;;;;;;;;;;;;;;;4.07;59.40;98960.56;4415129;32;20025;-90
2021/12/29 07:42:12;;;;;;;;;;;;;;;4.22;59.41;98953.38;4414985;32;20001;-90
2021/12/29 07:44:40;;;;;;;;;;;;;;;4.09;59.40;98958.81;4415154;32;19989;-89
2021/12/29 07:47:09;;;;;;;;;;;;;;;4.24;59.41;98958.50;4415614;32;20016;-90
2021/12/29 07:49:35;;;;;;;;;;;;;;;4.34;59.41;98957.47;4415270;32;19992;-88
2021/12/29 07:52:00;;;;;;;;;;;;;;;4.40;59.42;98969.38;4414918;32;19989;-88
2021/12/29 07:54:25;;;;;;;;;;;;;;;4.35;59.43;98959.16;4414882;32;20032;-90
2021/12/29 07:56:50;;;;;;;;;;;;;;;4.33;59.42;98963.50;4414540;32;20005;-90
2021/12/29 07:59:16;;;;;;;;;;;;;;;4.51;59.43;98954.56;4415350;32;19978;-90
2021/12/29 08:01:41;;;;;;;;;;;;;;;4.49;59.42;98954.56;4415138;32;20255;-90
2021/12/29 08:04:08;;;;;;;;;;;;;;;4.63;59.43;98957.72;4415166;32;19993;-89
2021/12/29 08:06:34;;;;;;;;;;;;;;;4.75;59.44;98960.94;4414800;32;19993;-88
2021/12/29 08:09:00;;;;;;;;;;;;;;;4.80;59.45;98957.37;4414775;32;20651;-88
2021/12/29 08:11:25;;;;;;;;;;;;;;;4.99;59.45;98964.72;4414870;32;20048;-88
2021/12/29 08:13:50;;;;;;;;;;;;;;;5.02;59.46;98965.50;4414771;32;20023;-89
2021/12/29 08:16:16;;;;;;;;;;;;;;;4.88;59.45;98972.66;4414930;32;20334;-89
2021/12/29 08:18:41;;;;;;;;;;;;;;;4.85;59.44;98976.16;4414740;32;19999;-88
2021/12/29 08:21:06;;;;;;;;;;;;;;;4.77;59.44;98978.06;4414590;32;19993;-89
2021/12/29 08:23:32;;;;;;;;;;;;;;;5.02;59.46;98972.37;4414543;32;19985;-88
2021/12/29 08:25:57;;;;;;;;;;;;;;;5.17;59.47;98978.03;4415090;32;20043;-89
2021/12/29 08:28:22;;;;;;;;;;;;;;;5.03;59.46;98982.66;4415028;32;20029;-89
2021/12/29 08:30:48;;;;;;;;;;;;;;;5.16;59.46;98993.53;4414597;32;20304;-89
2021/12/29 08:33:13;;;;;;;;;;;;;;;5.37;59.47;98994.78;4414931;32;20019;-89
2021/12/29 08:35:39;;;;;;;;;;;;;;;5.41;59.48;99006.75;4415074;32;20001;-87
2021/12/29 08:38:04;;;;;;;;;;;;;;;5.30;59.47;98999.25;4414569;32;19989;-89
2021/12/29 08:40:29;;;;;;;;;;;;;;;5.45;59.48;98998.06;4414757;32;20016;-89
2021/12/29 08:42:58;;;;;;;;;;;;;;;5.53;59.49;99002.16;4414134;32;20044;-87
2021/12/29 08:45:24;;;;;;;;;;;;;;;5.67;59.49;99013.88;4413636;32;19998;-87
2021/12/29 08:47:49;;;;;;;;;;;;;;;5.65;59.49;99013.91;4414566;32;19981;-88
2021/12/29 08:50:15;;;;;;;;;;;;;;;5.48;59.48;99018.63;4414644;32;20012;-89
2021/12/29 08:52:40;;;;;;;;;;;;;;;5.55;59.49;99015.03;4414756;32;20017;-88
2021/12/29 08:55:06;;;;;;;;;;;;;;;5.53;59.49;99020.22;4415478;32;19993;-87
2021/12/29 08:57:31;;;;;;;;;;;;;;;5.56;59.49;99021.88;4414782;32;20000;-88
2021/12/29 08:59:56;;;;;;;;;;;;;;;5.64;59.49;99019.97;4414688;32;19986;-89
2021/12/29 09:02:21;;;;;;;;;;;;;;;5.68;59.48;99018.16;4414592;32;19989;-89
2021/12/29 09:04:47;;;;;;;;;;;;;;;5.55;59.49;99009.84;4414468;32;20048;-89
2021/12/29 09:07:12;;;;;;;;;;;;;;;5.44;59.48;99011.81;4414378;32;19986;-89
2021/12/29 09:09:37;;;;;;;;;;;;;;;5.55;59.49;99012.44;4414670;32;19973;-88
2021/12/29 09:12:02;;;;;;;;;;;;;;;5.87;59.50;99007.34;4412445;32;20322;-88
2021/12/29 09:17:43;;;;;;;;;;;;;;;5.92;59.51;99004.69;4440362;32;20706;-90
2021/12/29 09:20:26;;;;;;;;;;;;;;;;;;;;;
2021/12/29 09:23:23;;;;;;;;;;;;;;;6.09;59.52;98992.19;4427967;32;36984;-90
2021/12/29 09:26:17;;;;;;;;;;;;;;;6.24;59.52;98990.09;4439924;32;20053;-89
2021/12/29 09:28:43;;;;;;;;;;;;;;;6.21;59.53;98985.00;4417548;32;19988;-93
2021/12/29 09:31:09;;;;;;;;;;;;;;;6.27;59.52;98979.66;4427644;32;20351;-91
2021/12/29 09:33:34;;;;;;;;;;;;;;;6.18;59.52;98983.34;4428174;32;20008;-94
2021/12/29 09:36:02;;;;;;;;;;;;;;;6.31;59.53;98973.53;4427935;32;20043;-93
2021/12/29 09:38:28;;;;;;;;;;;;;;;6.26;59.52;98973.66;4435578;32;19981;-92
2021/12/29 09:40:53;;;;;;;;;;;;;;;6.13;59.51;98961.94;4442403;32;19997;-89
2021/12/29 09:43:19;;;;;;;;;;;;;;;6.16;59.52;98967.03;4430007;32;20009;-90
2021/12/29 09:45:45;;;;;;;;;;;;;;;6.22;59.53;98963.44;4429076;32;20261;-88
2021/12/29 09:48:10;;;;;;;;;;;;;;;6.51;59.54;98965.22;4441723;32;19996;-89
2021/12/29 09:50:36;;;;;;;;;;;;;;;6.64;59.54;98959.66;4428888;32;20322;-87
2021/12/29 09:53:01;;;;;;;;;;;;;;;6.66;59.55;98964.78;4428683;32;19990;-88
2021/12/29 09:55:31;;;;;;;;;;;;;;;7.12;59.58;98950.50;4428974;32;19997;-88
2021/12/29 09:57:57;;;;;;;;;;;;;;;7.21;59.58;98952.78;4430560;32;19982;-89
2021/12/29 10:00:22;;;;;;;;;;;;;;;7.31;59.58;98954.19;4431114;32;19972;-88
2021/12/29 10:02:47;;;;;;;;;;;;;;;7.49;59.60;98945.84;4444008;32;19996;-89
2021/12/29 10:05:15;;;;;;;;;;;;;;;7.36;59.59;98941.97;4431283;32;19993;-89
2021/12/29 10:07:41;;;;;;;;;;;;;;;7.42;59.59;98936.59;4430897;32;20014;-88
2021/12/29 10:10:19;;;;;;;;;;;;;;;7.26;59.58;98941.41;4431064;32;19981;-91
2021/12/29 10:12:44;;;;;;;;;;;;;;;7.50;59.60;98933.75;4431743;32;19988;-92
2021/12/29 10:15:09;;;;;;;;;;;;;;;7.62;59.59;98941.97;4432841;32;20034;-92
2021/12/29 10:17:37;;;;;;;;;;;;;;;7.78;59.62;98939.69;4431545;32;19989;-93
2021/12/29 10:20:13;;;;;;;;;;;;;;;7.91;59.61;98938.41;4431368;32;20012;-93
2021/12/29 10:22:38;;;;;;;;;;;;;;;7.98;59.62;98933.84;4431209;32;19989;-92
2021/12/29 10:25:07;;;;;;;;;;;;;;;8.06;59.62;98934.44;4430980;32;20008;-93
2021/12/29 10:27:42;;;;;;;;;;;;;;;;;;;;;
2021/12/29 10:30:21;;;;;;;;;;;;;;;7.98;59.62;98933.84;4445128;32;35379;-92
2021/12/29 10:32:46;;;;;;;;;;;;;;;8.05;59.62;98942.28;4430885;32;20004;-90
2021/12/29 10:35:19;;;;;;;;;;;;;;;8.05;59.62;98940.53;4430550;32;19993;-89
2021/12/29 10:37:44;;;;;;;;;;;;;;;8.25;59.64;98942.41;4430742;32;19977;-90
2021/12/29 10:40:19;;;;;;;;;;;;;;;8.35;59.64;98948.16;4430615;32;20012;-90
2021/12/29 10:46:08;;;;;;;;;;;;;;;8.18;59.63;98941.78;4441795;32;19985;-91
2021/12/29 11:02:52;;;;;;;;;;;;;;;7.79;59.61;98956.09;4424485;32;20029;-91
2021/12/29 11:05:17;;;;;;;;;;;;;;;7.73;59.61;98953.69;4425199;32;20017;-88
2021/12/29 11:07:43;;;;;;;;;;;;;;;7.70;59.61;98952.91;4424857;32;20014;-90
2021/12/29 11:10:09;;;;;;;;;;;;;;;7.78;59.61;98954.38;4425516;32;20057;-91
2021/12/29 11:12:44;;;;;;;;;;;;;;;7.68;59.60;98951.28;4425071;32;20039;-87
2021/12/29 11:15:38;;;;;;;;;;;;;;;7.72;59.61;98946.84;4399817;32;20657;-89
2021/12/29 11:18:07;;;;;;;;;;;;;;;7.58;59.59;98955.06;4410435;32;19962;-89
2021/12/29 11:20:35;;;;;;;;;;;;;;;7.66;59.60;98951.31;4401144;32;20025;-95
2021/12/29 11:23:08;;;;;;;;;;;;;;;7.63;59.61;98948.00;4404986;32;19992;-93
2021/12/29 11:25:33;;;;;;;;;;;;;;;7.50;59.60;98950.13;4402586;32;19990;-95
2021/12/29 11:28:00;;;;;;;;;;;;;;;7.53;59.59;98955.19;4406107;32;20012;-94
2021/12/29 11:30:26;;;;;;;;;;;;;;;7.63;59.61;98959.19;4409300;32;20748;-95
2021/12/29 11:32:51;;;;;;;;;;;;;;;7.57;59.60;98958.53;4410274;32;20017;-94
2021/12/29 11:35:23;;;;;;;;;;;;;;;7.59;59.60;98954.19;4407857;32;19990;-96
2021/12/29 11:37:53;;;;;;;;;;;;;;;7.62;59.61;98949.75;4408744;32;19989;-96
2021/12/29 11:40:20;;;;;;;;;;;;;;;7.54;59.59;98956.03;4419953;32;19950;-96
2021/12/29 11:42:53;;;;;;;;;;;;;;;7.40;59.59;98959.09;4406847;32;19978;-96
2021/12/29 11:45:18;;;;;;;;;;;;;;;7.48;59.60;98957.09;4413500;32;20013;-94
2021/12/29 11:47:43;;;;;;;;;;;;;;;7.43;59.59;98960.72;4400413;32;20564;-94
2021/12/29 11:50:09;;;;;;;;;;;;;;;7.51;59.60;98963.91;4400503;32;19993;-95
2021/12/29 11:52:38;;;;;;;;;;;;;;;7.47;59.60;98976.12;4400474;32;20009;-94
2021/12/29 11:55:13;;;;;;;;;;;;;;;7.45;59.59;98971.87;4425995;32;20669;-95
2021/12/29 11:57:38;;;;;;;;;;;;;;;7.55;59.60;98970.69;4425932;32;20058;-94
2021/12/29 12:00:13;;;;;;;;;;;;;;;7.56;59.60;98978.41;4399620;32;19982;-95
2021/12/29 12:02:38;;;;;;;;;;;;;;;7.54;59.59;98977.59;4426228;32;20009;-95
2021/12/29 12:05:07;;;;;;;;;;;;;;;7.43;59.59;98971.94;4400142;32;20010;-96
2021/12/29 12:07:33;;;;;;;;;;;;;;;7.36;59.59;98973.03;4401586;32;19962;-95
2021/12/29 12:10:01;;;;;;;;;;;;;;;7.39;59.58;98985.88;4399683;32;20007;-93
2021/12/29 12:15:45;;;;;;;;;;;;;;;7.39;59.58;98986.72;4408482;32;20061;-95
2021/12/29 12:18:10;;;;;;;;;;;;;;;7.30;59.58;98987.00;4383813;32;19966;-95
2021/12/29 12:20:49;;;;;;;;;;;;;;;7.47;59.58;98986.47;4409846;32;19985;-95
2021/12/29 12:23:21;;;;;;;;;;;;;;;7.44;59.59;98988.31;4399731;32;19974;-95
2021/12/29 12:25:47;;;;;;;;;;;;;;;7.63;59.61;98992.88;4400217;32;20013;-94
2021/12/29 12:28:15;;;;;;;;;;;;;;;7.60;59.60;98987.78;4400810;32;20053;-94
2021/12/29 12:30:45;;;;;;;;;;;;;;;7.80;59.61;98987.13;4399889;32;19985;-95
2021/12/29 12:33:14;;;;;;;;;;;;;;;7.77;59.62;98988.97;4400361;32;20336;-96
2021/12/29 12:35:40;;;;;;;;;;;;;;;7.64;59.61;98980.75;4399917;32;20335;-95
2021/12/29 12:38:21;;;;;;;;;;;;;;;7.78;59.61;98988.06;4399823;32;19982;-95
2021/12/29 12:41:06;;;;;;;;;;;;;;;7.83;59.61;98986.19;4424906;32;20088;-93
2021/12/29 12:43:32;;;;;;;;;;;;;;;7.79;59.61;98985.44;4412477;32;19962;-94
2021/12/29 12:45:57;;;;;;;;;;;;;;;7.86;59.62;98996.47;4425295;32;20009;-96
2021/12/29 15:24:43;;;;;;;;;;;;;;;7.02;59.57;99165.53;4988030;27;20029;-93
2021/12/29 15:27:08;;;;;;;;;;;;;;;6.97;59.57;99169.97;4437808;32;20393;-90
2021/12/29 15:29:34;;;;;;;;;;;;;;;6.90;59.56;99165.88;4440085;32;20012;-93
2021/12/29 15:32:00;;;;;;;;;;;;;;;7.00;59.56;99180.25;4440267;32;20059;-92
2021/12/29 15:34:26;;;;;;;;;;;;;;;6.85;59.56;99175.47;4439389;32;20012;-88
2021/12/29 15:36:53;;;;;;;;;;;;;;;6.76;59.55;99178.31;4440360;32;20670;-92
2021/12/29 15:39:23;;;;;;;;;;;;;;;6.80;59.56;99185.09;4439678;32;20334;-94
2021/12/29 15:41:48;;;;;;;;;;;;;;;6.88;59.56;99187.50;4439950;32;20362;-90
2021/12/29 15:44:14;;;;;;;;;;;;;;;6.82;59.56;99190.22;4440188;32;19994;-94
2021/12/29 15:46:39;;;;;;;;;;;;;;;6.90;59.56;99183.13;4440211;32;20304;-95
2021/12/29 15:49:04;;;;;;;;;;;;;;;6.72;59.56;99177.53;4439813;32;20004;-93
2021/12/29 15:51:29;;;;;;;;;;;;;;;6.89;59.56;99179.69;4439357;32;20057;-94
2021/12/29 15:53:55;;;;;;;;;;;;;;;6.80;59.57;99192.84;4439842;32;20035;-93
2021/12/29 15:56:20;;;;;;;;;;;;;;;6.84;59.56;99191.88;4440977;32;19997;-94
2021/12/29 15:58:48;;;;;;;;;;;;;;;6.76;59.55;99194.66;4440905;32;19977;-93
2021/12/29 16:01:15;;;;;;;;;;;;;;;6.85;59.56;99197.91;4445390;32;19996;-94
2021/12/29 16:03:40;;;;;;;;;;;;;;;6.84;59.56;99206.56;4450361;32;19973;-95